Time;durP1;ratioP1;P1;durP2;ratioP2;P2;SDS_P1;SDS_P2;PMS_P1;PMS_P2;Temp;Humidity;BMP_temperature;BMP_pressure;BME280_temperature;BME280_humidity;BME280_pressure;Samples;Min_cycle;Max_cycle;Signal;HPM_P1;HPM_P2
2021/07/11 00:00:01;;;;;;;13.57;12.47;;;23.80;98.40;;;;;;3545933;40;20544;-60
2021/07/11 00:02:32;;;;;;;12.37;11.47;;;23.80;98.40;;;;;;3545198;40;20454;-60
2021/07/11 00:05:00;;;;;;;12.60;11.80;;;23.80;98.40;;;;;;3545560;40;20509;-60
2021/07/11 00:07:30;;;;;;;12.77;11.73;;;23.80;98.40;;;;;;3546125;40;20469;-59
2021/07/11 00:09:59;;;;;;;12.30;11.37;;;23.80;98.40;;;;;;3545704;40;20510;-60
2021/07/11 00:12:27;;;;;;;11.57;10.83;;;23.80;98.40;;;;;;3545767;40;20489;-60
2021/07/11 00:14:55;;;;;;;13.27;12.37;;;23.80;98.40;;;;;;3545663;40;20464;-59
2021/07/11 00:17:23;;;;;;;11.83;11.13;;;23.80;98.40;;;;;;3545799;40;20544;-60
2021/07/11 00:19:51;;;;;;;11.10;10.40;;;23.80;98.40;;;;;;3544827;40;20485;-60
2021/07/11 00:22:18;;;;;;;12.00;11.30;;;23.80;98.40;;;;;;3545165;40;20946;-60
2021/07/11 00:24:47;;;;;;;12.07;11.17;;;23.80;98.40;;;;;;3545601;40;20461;-59
2021/07/11 00:27:15;;;;;;;11.90;11.00;;;23.80;98.40;;;;;;3537291;40;20500;-58
2021/07/11 00:29:43;;;;;;;12.10;11.30;;;23.80;98.40;;;;;;3545914;40;20453;-59
2021/07/11 00:32:10;;;;;;;12.27;11.50;;;23.80;98.40;;;;;;3545429;40;20461;-60
2021/07/11 00:34:37;;;;;;;12.50;11.67;;;23.80;98.40;;;;;;3541795;40;20584;-60
2021/07/11 00:37:05;;;;;;;12.37;11.67;;;23.80;98.40;;;;;;3535562;40;21005;-60
2021/07/11 00:39:33;;;;;;;11.50;10.70;;;23.80;98.40;;;;;;3526131;40;20828;-60
2021/07/11 00:42:01;;;;;;;10.67;10.07;;;23.80;98.40;;;;;;3526901;40;20498;-60
2021/07/11 00:44:30;;;;;;;13.50;12.63;;;23.80;98.40;;;;;;3526649;40;20877;-60
2021/07/11 00:46:59;;;;;;;12.10;11.40;;;23.80;98.40;;;;;;3535033;40;20459;-60
2021/07/11 00:49:29;;;;;;;11.90;11.20;;;23.80;98.40;;;;;;3535701;40;20489;-60
2021/07/11 00:51:58;;;;;;;12.40;11.50;;;23.80;98.40;;;;;;3527132;40;20495;-59
2021/07/11 00:54:25;;;;;;;11.43;10.80;;;23.80;98.50;;;;;;3526884;40;20471;-59
2021/07/11 00:56:52;;;;;;;12.20;11.50;;;23.80;98.40;;;;;;3526921;40;20475;-59
2021/07/11 00:59:22;;;;;;;11.43;10.63;;;23.80;98.40;;;;;;3535670;40;20498;-60
2021/07/11 01:01:58;;;;;;;11.40;10.70;;;23.80;98.40;;;;;;3535901;40;20474;-60
2021/07/11 01:04:29;;;;;;;11.70;10.97;;;23.80;98.50;;;;;;3535673;40;21086;-60
2021/07/11 01:07:03;;;;;;;12.03;11.07;;;23.80;98.50;;;;;;3526569;40;20461;-61
2021/07/11 01:09:35;;;;;;;11.10;10.20;;;23.80;98.50;;;;;;3535146;40;20455;-60
2021/07/11 01:12:05;;;;;;;10.47;9.87;;;23.80;98.50;;;;;;3527134;40;20467;-60
2021/07/11 01:14:43;;;;;;;11.20;10.50;;;23.80;98.50;;;;;;3527062;40;20465;-60
2021/07/11 01:17:17;;;;;;;9.73;9.17;;;23.80;98.50;;;;;;3526697;40;20541;-60
2021/07/11 01:20:01;;;;;;;11.23;10.57;;;23.80;98.50;;;;;;3535494;40;20484;-60
2021/07/11 01:22:40;;;;;;;10.57;9.97;;;23.80;98.50;;;;;;3526677;40;20477;-60
2021/07/11 01:25:11;;;;;;;11.50;10.70;;;23.80;98.50;;;;;;3535947;40;20500;-61
2021/07/11 01:27:43;;;;;;;10.97;10.20;;;23.80;98.50;;;;;;3534661;40;20493;-60
2021/07/11 01:30:11;;;;;;;10.40;9.80;;;23.80;98.50;;;;;;3535012;40;20474;-60
2021/07/11 01:32:42;;;;;;;10.80;10.10;;;23.80;98.60;;;;;;3525668;40;20462;-60
2021/07/11 01:35:11;;;;;;;11.07;10.37;;;23.80;98.50;;;;;;3535304;40;20892;-59
2021/07/11 01:37:39;;;;;;;10.87;10.27;;;23.80;98.60;;;;;;3535450;40;20467;-61
2021/07/11 01:40:09;;;;;;;9.83;9.33;;;23.80;98.60;;;;;;3534917;40;20466;-60
2021/07/11 01:42:39;;;;;;;10.60;10.00;;;23.80;98.60;;;;;;3535909;40;20478;-59
2021/07/11 01:45:10;;;;;;;9.70;9.20;;;23.80;98.60;;;;;;3527719;40;20474;-61
2021/07/11 01:47:39;;;;;;;11.00;10.40;;;23.80;98.60;;;;;;3528324;40;20514;-61
2021/07/11 01:50:08;;;;;;;10.27;9.77;;;23.80;98.90;;;;;;3537143;40;20958;-60
2021/07/11 01:52:36;;;;;;;10.87;10.17;;;23.80;98.60;;;;;;3529168;40;20647;-61
2021/07/11 01:55:04;;;;;;;10.50;10.00;;;23.80;98.60;;;;;;3536988;40;20455;-59
2021/07/11 01:57:32;;;;;;;10.83;10.07;;;23.80;98.60;;;;;;3528079;40;20517;-59
2021/07/11 02:00:01;;;;;;;11.70;11.00;;;23.80;98.60;;;;;;3536663;40;20809;-59
2021/07/11 02:02:45;;;;;;;10.23;9.60;;;23.80;98.60;;;;;;3537161;40;20455;-60
2021/07/11 02:05:21;;;;;;;10.10;9.60;;;23.80;98.60;;;;;;3543560;40;20458;-61
2021/07/11 02:07:52;;;;;;;9.20;8.80;;;23.80;98.60;;;;;;3527488;40;20482;-60
2021/07/11 02:10:20;;;;;;;10.70;10.13;;;23.80;98.60;;;;;;3537143;40;20551;-59
2021/07/11 02:13:01;;;;;;;10.47;9.80;;;23.80;98.60;;;;;;3528200;40;20455;-60
2021/07/11 02:15:30;;;;;;;9.43;8.97;;;23.80;98.60;;;;;;3528382;40;20544;-60
2021/07/11 02:18:03;;;;;;;9.47;8.87;;;23.80;98.60;;;;;;3527753;40;20471;-59
2021/07/11 02:20:39;;;;;;;9.87;9.27;;;23.80;98.60;;;;;;3537555;40;20466;-59
2021/07/11 02:23:11;;;;;;;10.63;9.93;;;23.80;98.60;;;;;;3537038;40;20454;-61
2021/07/11 02:25:47;;;;;;;10.17;9.67;;;23.80;98.60;;;;;;3537030;40;20502;-60
2021/07/11 02:28:16;;;;;;;10.17;9.67;;;23.80;98.60;;;;;;3536760;40;20925;-61
2021/07/11 02:30:52;;;;;;;10.37;9.87;;;23.80;98.60;;;;;;3536679;40;20439;-60
2021/07/11 02:33:31;;;;;;;9.40;8.90;;;23.80;98.60;;;;;;3537021;40;20494;-60
2021/07/11 02:36:02;;;;;;;10.10;9.60;;;23.80;98.60;;;;;;3536981;40;20455;-60
2021/07/11 02:38:39;;;;;;;10.93;10.33;;;23.80;98.60;;;;;;3527464;40;20826;-59
2021/07/11 02:41:07;;;;;;;9.80;9.30;;;23.80;98.60;;;;;;3543844;40;20462;-61
2021/07/11 02:43:35;;;;;;;9.63;9.13;;;23.80;98.60;;;;;;3536977;40;20457;-59
2021/07/11 02:46:04;;;;;;;9.80;9.30;;;23.80;98.60;;;;;;3528001;40;20474;-59
2021/07/11 02:48:36;;;;;;;10.00;9.50;;;23.80;98.60;;;;;;3527846;40;20964;-60
2021/07/11 02:51:05;;;;;;;9.63;9.10;;;23.80;98.60;;;;;;3527757;40;20507;-60
2021/07/11 02:53:35;;;;;;;9.80;9.20;;;23.80;98.60;;;;;;3536687;40;21069;-59
2021/07/11 02:56:09;;;;;;;9.63;9.13;;;23.80;98.60;;;;;;3527714;40;20446;-58
2021/07/11 02:58:39;;;;;;;9.80;9.30;;;23.80;98.60;;;;;;3536249;40;20588;-59
2021/07/11 03:01:10;;;;;;;10.10;9.50;;;23.80;98.60;;;;;;3527016;40;20454;-59
2021/07/11 03:03:42;;;;;;;10.00;9.50;;;23.80;98.70;;;;;;3527084;40;20451;-61
2021/07/11 03:06:09;;;;;;;9.03;8.63;;;23.80;98.70;;;;;;3536149;40;20629;-60
2021/07/11 03:08:38;;;;;;;8.93;8.53;;;23.80;98.60;;;;;;3536508;40;20503;-61
2021/07/11 03:11:15;;;;;;;9.93;9.40;;;23.80;98.70;;;;;;3527251;40;20510;-60
2021/07/11 03:13:43;;;;;;;9.53;9.10;;;23.80;98.70;;;;;;3536521;40;20538;-59
2021/07/11 03:16:13;;;;;;;9.60;9.10;;;23.80;98.70;;;;;;3527659;40;20473;-60
2021/07/11 03:18:47;;;;;;;10.37;9.77;;;23.80;98.70;;;;;;3536342;40;20537;-58
2021/07/11 03:21:15;;;;;;;10.10;9.60;;;23.80;98.70;;;;;;3536429;40;20444;-60
2021/07/11 03:23:49;;;;;;;9.50;9.00;;;23.80;98.60;;;;;;3536538;40;20445;-60
2021/07/11 03:26:18;;;;;;;10.17;9.67;;;23.80;98.70;;;;;;3527860;40;20455;-61
2021/07/11 03:28:48;;;;;;;10.70;10.07;;;23.80;98.70;;;;;;3536691;40;20485;-60
2021/07/11 03:31:15;;;;;;;9.70;9.20;;;23.80;98.70;;;;;;3543987;40;20983;-60
2021/07/11 03:33:47;;;;;;;9.60;9.20;;;23.80;98.70;;;;;;3527055;40;20474;-60
2021/07/11 03:36:17;;;;;;;10.33;9.73;;;23.80;98.70;;;;;;3535985;40;20553;-60
2021/07/11 03:38:47;;;;;;;9.57;9.07;;;23.80;98.70;;;;;;3527121;40;20459;-60
2021/07/11 03:41:18;;;;;;;9.50;9.10;;;23.80;98.70;;;;;;3527093;40;20991;-61
2021/07/11 03:43:50;;;;;;;9.40;9.00;;;23.80;98.70;;;;;;3536261;40;20447;-60
2021/07/11 03:46:20;;;;;;;10.00;9.33;;;23.80;98.70;;;;;;3536286;40;20455;-60
2021/07/11 03:48:52;;;;;;;10.20;9.60;;;23.80;98.70;;;;;;3536473;40;20490;-61
2021/07/11 03:51:25;;;;;;;9.20;8.80;;;23.80;98.70;;;;;;3536865;40;20451;-58
2021/07/11 03:53:55;;;;;;;9.63;9.13;;;23.80;98.70;;;;;;3536817;40;20483;-60
2021/07/11 03:56:28;;;;;;;10.20;9.50;;;23.80;98.70;;;;;;3536346;40;20506;-61
2021/07/11 03:58:56;;;;;;;9.97;9.50;;;23.80;98.70;;;;;;3536320;40;20495;-60
2021/07/11 04:01:26;;;;;;;8.70;8.30;;;23.80;98.70;;;;;;3527421;40;20481;-60
2021/07/11 04:03:56;;;;;;;9.80;9.30;;;23.80;98.70;;;;;;3536528;40;20486;-60
2021/07/11 04:06:25;;;;;;;9.37;8.93;;;23.80;98.70;;;;;;3536053;40;20451;-60
2021/07/11 04:08:56;;;;;;;9.83;9.33;;;23.80;98.70;;;;;;3535929;40;21223;-60
2021/07/11 04:11:24;;;;;;;8.40;7.90;;;23.80;98.70;;;;;;3536071;40;20495;-60
2021/07/11 04:13:51;;;;;;;9.07;8.57;;;23.80;98.70;;;;;;3535972;40;20478;-60
2021/07/11 04:16:23;;;;;;;8.87;8.47;;;23.80;98.70;;;;;;3535595;40;20447;-60
2021/07/11 04:18:52;;;;;;;9.90;9.40;;;23.80;98.70;;;;;;3536032;40;20712;-60
2021/07/11 04:21:22;;;;;;;9.80;9.30;;;23.80;98.70;;;;;;3535390;40;20454;-60
2021/07/11 04:23:51;;;;;;;8.90;8.50;;;23.80;98.70;;;;;;3524943;40;20447;-60
2021/07/11 04:26:19;;;;;;;9.60;9.20;;;23.80;98.70;;;;;;3536180;40;20494;-60
2021/07/11 04:28:48;;;;;;;9.60;9.07;;;23.80;98.70;;;;;;3535585;40;20490;-60
2021/07/11 04:31:15;;;;;;;9.20;8.80;;;23.80;98.70;;;;;;3535604;40;20458;-61
2021/07/11 04:33:42;;;;;;;9.43;8.93;;;23.80;98.70;;;;;;3535332;40;20471;-59
2021/07/11 04:36:10;;;;;;;9.90;9.50;;;23.80;98.70;;;;;;3535731;40;20465;-60
2021/07/11 04:38:39;;;;;;;8.53;8.23;;;23.80;98.70;;;;;;3542886;40;20507;-60
2021/07/11 04:41:07;;;;;;;9.13;8.60;;;23.80;98.70;;;;;;3535655;40;20557;-61
2021/07/11 04:43:35;;;;;;;9.07;8.60;;;23.80;98.70;;;;;;3535040;40;20968;-59
2021/07/11 04:46:02;;;;;;;9.27;8.87;;;23.80;98.70;;;;;;3534986;40;21061;-60
2021/07/11 04:48:29;;;;;;;9.07;8.60;;;23.80;98.70;;;;;;3535603;40;20466;-60
2021/07/11 04:50:57;;;;;;;9.17;8.77;;;23.80;98.70;;;;;;3534682;40;20838;-60
2021/07/11 04:53:25;;;;;;;8.53;8.13;;;23.80;98.70;;;;;;3535527;40;20455;-60
2021/07/11 04:55:54;;;;;;;8.90;8.50;;;23.80;98.70;;;;;;3534666;40;20463;-61
2021/07/11 04:58:22;;;;;;;9.90;9.40;;;23.80;98.70;;;;;;3534464;40;20503;-60
2021/07/11 05:00:49;;;;;;;9.10;8.60;;;23.80;98.70;;;;;;3534576;40;20478;-60
2021/07/11 05:03:16;;;;;;;8.93;8.47;;;23.80;98.80;;;;;;3535580;40;20495;-60
2021/07/11 05:05:43;;;;;;;8.80;8.40;;;23.80;98.70;;;;;;3535433;40;20463;-60
2021/07/11 05:08:11;;;;;;;8.50;7.93;;;23.80;98.70;;;;;;3534443;40;20873;-60
2021/07/11 05:10:38;;;;;;;8.80;8.40;;;23.80;98.70;;;;;;3542687;40;20799;-61
2021/07/11 05:13:07;;;;;;;8.37;7.93;;;23.80;98.70;;;;;;3535952;40;20447;-59
2021/07/11 05:15:34;;;;;;;8.90;8.40;;;23.80;98.70;;;;;;3535495;40;20476;-60
2021/07/11 05:18:01;;;;;;;8.80;8.40;;;23.80;98.70;;;;;;3534372;40;20451;-59
2021/07/11 05:20:28;;;;;;;9.50;8.90;;;23.80;98.70;;;;;;3536714;40;20470;-60
2021/07/11 05:22:55;;;;;;;9.07;8.47;;;23.80;98.70;;;;;;3536803;40;20731;-61
2021/07/11 05:25:23;;;;;;;8.63;8.23;;;23.80;98.70;;;;;;3537862;40;20451;-59
2021/07/11 05:27:51;;;;;;;9.60;9.10;;;23.80;98.70;;;;;;3545330;40;20825;-59
2021/07/11 05:30:20;;;;;;;9.07;8.67;;;23.80;98.70;;;;;;3536933;40;20519;-60
2021/07/11 05:32:48;;;;;;;9.70;9.20;;;23.70;98.70;;;;;;3537572;40;20443;-60
2021/07/11 05:35:15;;;;;;;9.10;8.70;;;23.80;98.70;;;;;;3537409;40;20569;-60
2021/07/11 05:37:43;;;;;;;8.87;8.47;;;23.80;98.70;;;;;;3538962;40;20454;-59
2021/07/11 05:40:11;;;;;;;8.83;8.50;;;23.80;98.70;;;;;;3526681;40;20694;-60
2021/07/11 05:42:38;;;;;;;9.20;8.80;;;23.80;98.70;;;;;;3521465;40;20647;-60
2021/07/11 05:45:06;;;;;;;8.50;8.10;;;23.80;98.80;;;;;;3520749;40;20481;-59
2021/07/11 05:47:35;;;;;;;8.80;8.20;;;23.70;98.70;;;;;;3521674;40;20782;-59
2021/07/11 05:50:02;;;;;;;8.93;8.53;;;23.80;98.70;;;;;;3520856;40;20727;-60
2021/07/11 05:52:29;;;;;;;9.37;8.77;;;23.80;98.80;;;;;;3520627;40;20458;-60
2021/07/11 05:54:57;;;;;;;8.33;7.93;;;23.80;98.80;;;;;;3520821;40;20850;-60
2021/07/11 05:57:26;;;;;;;9.20;8.80;;;23.80;98.80;;;;;;3529938;40;20483;-60
2021/07/11 05:59:54;;;;;;;8.43;8.03;;;23.80;98.80;;;;;;3531576;40;20800;-60
2021/07/11 06:02:21;;;;;;;9.20;8.70;;;23.80;98.80;;;;;;3536520;40;20459;-61
2021/07/11 06:04:49;;;;;;;8.50;8.10;;;23.80;98.80;;;;;;3536841;40;20471;-60
2021/07/11 06:07:17;;;;;;;8.67;8.27;;;23.80;98.80;;;;;;3535928;40;20482;-60
2021/07/11 06:09:44;;;;;;;8.93;8.53;;;23.80;98.80;;;;;;3536396;40;20490;-60
2021/07/11 06:12:11;;;;;;;9.07;8.53;;;23.80;98.80;;;;;;3535612;40;20494;-60
2021/07/11 06:14:39;;;;;;;9.37;8.63;;;23.80;98.80;;;;;;3536161;40;20753;-60
2021/07/11 06:17:06;;;;;;;8.70;8.30;;;23.80;98.80;;;;;;3537344;40;20447;-60
2021/07/11 06:19:33;;;;;;;8.30;7.80;;;23.80;98.80;;;;;;3536318;40;20888;-59
2021/07/11 06:22:04;;;;;;;8.27;7.87;;;23.80;98.80;;;;;;3536767;40;20451;-60
2021/07/11 06:24:31;;;;;;;8.57;8.17;;;23.80;98.80;;;;;;3535982;40;20447;-59
2021/07/11 06:26:58;;;;;;;8.30;7.90;;;23.80;98.80;;;;;;3536423;40;20482;-60
2021/07/11 06:29:25;;;;;;;8.23;7.83;;;23.80;98.80;;;;;;3536822;40;20470;-60
2021/07/11 06:31:53;;;;;;;8.07;7.77;;;23.80;98.80;;;;;;3534374;40;20474;-60
2021/07/11 06:34:20;;;;;;;9.07;8.47;;;23.80;98.80;;;;;;3533958;40;20494;-60
2021/07/11 06:36:47;;;;;;;8.27;7.87;;;23.80;98.80;;;;;;3533839;40;20494;-60
2021/07/11 06:39:18;;;;;;;8.63;8.23;;;23.80;98.90;;;;;;3535023;40;20491;-59
2021/07/11 06:41:46;;;;;;;8.23;7.83;;;23.80;98.80;;;;;;3535213;40;21068;-60
2021/07/11 06:44:13;;;;;;;8.13;7.83;;;23.80;98.80;;;;;;3534504;40;20442;-60
2021/07/11 06:46:40;;;;;;;8.77;8.10;;;23.80;98.80;;;;;;3535778;40;20442;-60
2021/07/11 06:49:07;;;;;;;8.10;7.70;;;23.80;98.80;;;;;;3535313;40;20487;-60
2021/07/11 06:51:35;;;;;;;8.97;8.47;;;23.80;98.80;;;;;;3534011;40;20470;-60
2021/07/11 06:54:02;;;;;;;8.40;7.90;;;23.80;98.80;;;;;;3534270;40;20451;-61
2021/07/11 06:56:31;;;;;;;8.17;7.77;;;23.80;98.80;;;;;;3534846;40;20479;-58
2021/07/11 06:58:58;;;;;;;8.83;8.30;;;23.80;98.80;;;;;;3534574;40;20470;-59
2021/07/11 07:01:25;;;;;;;8.60;8.10;;;23.80;98.80;;;;;;3525328;40;20466;-60
2021/07/11 07:03:53;;;;;;;9.27;8.77;;;23.80;98.80;;;;;;3534313;40;20462;-60
2021/07/11 07:06:20;;;;;;;9.47;8.97;;;23.80;98.80;;;;;;3534600;40;20529;-60
2021/07/11 07:08:47;;;;;;;8.50;7.93;;;23.80;98.80;;;;;;3533860;40;20498;-60
2021/07/11 07:11:14;;;;;;;8.83;8.13;;;23.80;98.80;;;;;;3535026;40;20723;-60
2021/07/11 07:13:43;;;;;;;9.03;8.33;;;23.80;98.80;;;;;;3534216;40;20447;-60
2021/07/11 07:16:10;;;;;;;8.57;7.97;;;23.80;98.90;;;;;;3533469;40;21206;-59
2021/07/11 07:18:37;;;;;;;8.50;8.00;;;23.80;98.90;;;;;;3533473;40;20482;-60
2021/07/11 07:21:04;;;;;;;9.07;8.57;;;23.80;98.90;;;;;;3533424;40;20471;-61
2021/07/11 07:23:32;;;;;;;8.50;8.00;;;23.80;98.90;;;;;;3533003;40;20459;-60
2021/07/11 07:25:59;;;;;;;8.03;7.63;;;23.80;98.90;;;;;;3533202;40;20466;-61
2021/07/11 07:28:26;;;;;;;8.10;7.60;;;23.80;98.90;;;;;;3532480;40;20475;-60
2021/07/11 07:30:55;;;;;;;7.97;7.67;;;23.80;98.80;;;;;;3532659;40;20467;-60
2021/07/11 07:33:22;;;;;;;7.90;7.50;;;23.80;98.80;;;;;;3533138;40;20474;-60
2021/07/11 07:35:50;;;;;;;8.10;7.70;;;23.80;98.80;;;;;;3539385;40;20522;-60
2021/07/11 07:38:17;;;;;;;7.90;7.47;;;23.80;98.80;;;;;;3531878;40;20905;-60
2021/07/11 07:40:45;;;;;;;8.00;7.60;;;23.80;98.80;;;;;;3533543;40;20450;-60
2021/07/11 07:43:13;;;;;;;8.73;8.10;;;23.80;98.80;;;;;;3532610;40;20549;-60
2021/07/11 07:45:41;;;;;;;9.10;8.70;;;23.80;98.80;;;;;;3531982;40;20445;-59
2021/07/11 07:48:10;;;;;;;8.20;7.70;;;23.80;98.90;;;;;;3533222;40;20690;-60
2021/07/11 07:50:38;;;;;;;8.93;8.33;;;23.80;98.90;;;;;;3532437;40;20474;-60
2021/07/11 07:53:07;;;;;;;8.53;8.10;;;23.80;98.80;;;;;;3532519;40;20458;-60
2021/07/11 07:55:35;;;;;;;9.13;8.50;;;23.80;98.80;;;;;;3533882;40;20449;-60
2021/07/11 07:58:03;;;;;;;9.00;8.43;;;23.80;98.80;;;;;;3540743;40;20439;-59
2021/07/11 08:00:31;;;;;;;8.00;7.60;;;23.80;98.80;;;;;;3533729;40;20459;-60
2021/07/11 08:02:59;;;;;;;9.50;8.90;;;23.80;98.80;;;;;;3532821;40;20459;-60
2021/07/11 08:05:27;;;;;;;7.90;7.50;;;23.80;98.90;;;;;;3534054;40;20546;-60
2021/07/11 08:07:55;;;;;;;9.17;8.67;;;23.80;98.90;;;;;;3532366;40;20506;-59
2021/07/11 08:10:22;;;;;;;8.10;7.70;;;23.80;98.90;;;;;;3532715;40;20475;-60
2021/07/11 08:12:49;;;;;;;8.27;7.87;;;23.80;98.90;;;;;;3532267;40;20546;-60
2021/07/11 08:15:19;;;;;;;8.70;8.00;;;23.80;98.90;;;;;;3532794;40;20553;-59
2021/07/11 08:17:48;;;;;;;8.00;7.57;;;23.80;98.90;;;;;;3524063;40;20454;-60
2021/07/11 08:20:18;;;;;;;9.50;7.97;;;23.80;98.90;;;;;;3532399;40;20518;-59
2021/07/11 08:22:47;;;;;;;8.70;8.10;;;23.80;98.90;;;;;;3532888;40;20481;-60
2021/07/11 08:25:15;;;;;;;7.67;7.37;;;23.80;98.90;;;;;;3532713;40;20926;-60
2021/07/11 08:27:44;;;;;;;8.73;8.00;;;23.80;98.90;;;;;;3533059;40;20458;-60
2021/07/11 08:30:13;;;;;;;7.97;7.60;;;23.80;98.90;;;;;;3533825;40;20515;-59
2021/07/11 08:32:41;;;;;;;8.80;8.30;;;23.80;98.80;;;;;;3531918;40;20454;-60
2021/07/11 08:35:10;;;;;;;9.00;8.50;;;23.80;98.80;;;;;;3532926;40;20498;-60
2021/07/11 08:37:37;;;;;;;9.17;8.40;;;23.80;98.80;;;;;;3533276;40;20447;-59
2021/07/11 08:40:08;;;;;;;8.63;8.23;;;23.80;98.80;;;;;;3522946;40;20462;-59
2021/07/11 08:42:36;;;;;;;8.80;8.40;;;23.90;98.80;;;;;;3532568;40;20455;-61
2021/07/11 08:45:04;;;;;;;8.23;7.83;;;23.80;98.70;;;;;;3532354;40;20435;-60
2021/07/11 08:47:32;;;;;;;8.87;8.33;;;23.90;98.80;;;;;;3532080;40;20829;-59
2021/07/11 08:49:59;;;;;;;8.77;8.37;;;23.80;98.70;;;;;;3532898;40;20461;-60
2021/07/11 08:52:27;;;;;;;9.03;8.53;;;23.90;98.70;;;;;;3530668;40;20457;-60
2021/07/11 08:54:54;;;;;;;9.07;8.63;;;23.90;98.70;;;;;;3530642;40;20463;-60
2021/07/11 08:57:22;;;;;;;9.17;8.77;;;23.80;98.60;;;;;;3531173;40;20890;-59
2021/07/11 08:59:50;;;;;;;9.20;8.80;;;23.80;98.60;;;;;;3531989;40;20514;-59
2021/07/11 09:02:18;;;;;;;8.47;8.17;;;23.80;98.60;;;;;;3531731;40;20466;-60
2021/07/11 09:04:46;;;;;;;10.10;9.40;;;23.80;98.60;;;;;;3533220;40;20475;-60
2021/07/11 09:07:18;;;;;;;9.23;8.83;;;23.80;98.60;;;;;;3533501;40;20454;-59
2021/07/11 09:09:45;;;;;;;9.77;9.27;;;23.80;98.60;;;;;;3532846;40;20481;-59
2021/07/11 09:12:14;;;;;;;9.23;8.83;;;23.90;98.60;;;;;;3526350;40;20479;-59
2021/07/11 09:14:45;;;;;;;9.13;8.73;;;23.90;98.50;;;;;;3532691;40;20463;-60
2021/07/11 09:17:17;;;;;;;9.13;8.80;;;23.90;98.50;;;;;;3527495;40;20474;-60
2021/07/11 09:19:48;;;;;;;9.83;9.43;;;23.90;98.50;;;;;;3513817;40;20930;-59
2021/07/11 09:22:18;;;;;;;8.73;8.33;;;23.80;98.40;;;;;;3521963;40;20463;-59
2021/07/11 09:24:53;;;;;;;9.00;8.40;;;23.80;98.30;;;;;;3521492;40;20456;-60
2021/07/11 09:27:24;;;;;;;9.87;9.37;;;23.90;98.40;;;;;;3520899;40;20471;-60
2021/07/11 09:29:54;;;;;;;10.43;10.03;;;23.80;98.30;;;;;;3527834;40;20477;-60
2021/07/11 09:32:26;;;;;;;9.87;9.37;;;23.80;98.30;;;;;;3528651;40;20971;-60
2021/07/11 09:34:55;;;;;;;9.80;9.37;;;23.80;98.30;;;;;;3519111;40;20484;-60
2021/07/11 09:37:24;;;;;;;9.83;9.40;;;23.80;98.20;;;;;;3512531;40;20473;-60
2021/07/11 09:39:56;;;;;;;9.60;9.17;;;23.80;98.10;;;;;;3512120;40;20551;-60
2021/07/11 09:42:26;;;;;;;10.37;9.40;;;23.90;98.20;;;;;;3512993;40;20453;-60
2021/07/11 09:44:56;;;;;;;10.17;9.27;;;23.80;98.10;;;;;;3512936;40;20480;-60
2021/07/11 09:47:27;;;;;;;9.93;9.43;;;23.80;98.10;;;;;;3513131;40;20718;-60
2021/07/11 09:50:18;;;;;;;10.37;9.87;;;23.90;98.20;;;;;;3513261;40;20488;-60
2021/07/11 09:52:48;;;;;;;9.60;9.10;;;23.90;98.30;;;;;;3510683;40;20575;-60
2021/07/11 09:55:18;;;;;;;9.73;9.17;;;23.80;98.20;;;;;;3512573;40;20480;-60
2021/07/11 09:57:49;;;;;;;11.13;10.40;;;23.90;98.20;;;;;;3513311;40;20459;-60
2021/07/11 10:00:23;;;;;;;9.90;9.40;;;23.90;98.30;;;;;;3512640;40;20493;-61
2021/07/11 10:02:54;;;;;;;10.87;10.17;;;23.90;98.30;;;;;;3512144;40;20488;-61
2021/07/11 10:05:23;;;;;;;10.40;9.80;;;23.80;98.20;;;;;;3512750;40;20543;-60
2021/07/11 10:07:51;;;;;;;9.83;9.23;;;23.90;98.20;;;;;;3523098;40;20478;-59
2021/07/11 10:10:22;;;;;;;9.53;9.00;;;23.90;98.20;;;;;;3514271;40;20507;-61
2021/07/11 10:12:51;;;;;;;9.60;9.00;;;23.80;98.20;;;;;;3516072;40;20482;-61
2021/07/11 10:15:22;;;;;;;9.97;9.17;;;23.80;98.20;;;;;;3528213;40;20686;-58
2021/07/11 10:17:54;;;;;;;10.43;9.87;;;23.80;98.20;;;;;;3533380;40;21087;-60
2021/07/11 10:20:23;;;;;;;10.00;9.40;;;23.90;98.30;;;;;;3524170;40;20953;-59
2021/07/11 10:22:53;;;;;;;9.93;9.03;;;23.80;98.20;;;;;;3523809;40;20464;-59
2021/07/11 10:25:23;;;;;;;9.67;8.77;;;23.90;98.30;;;;;;3523592;40;20479;-59
2021/07/11 10:28:05;;;;;;;9.77;9.17;;;23.80;98.20;;;;;;3522667;40;20479;-58
2021/07/11 10:30:39;;;;;;;9.17;8.77;;;23.90;98.30;;;;;;3525210;40;20729;-60
2021/07/11 10:33:09;;;;;;;9.40;8.90;;;23.90;98.20;;;;;;3523919;40;20743;-59
2021/07/11 10:35:53;;;;;;;11.83;8.90;;;23.90;98.20;;;;;;3531226;40;21081;-59
2021/07/11 10:38:32;;;;;;;9.90;9.30;;;23.90;98.20;;;;;;3521941;40;20587;-60
2021/07/11 10:41:17;;;;;;;9.73;9.20;;;23.90;98.10;;;;;;3531887;40;20454;-60
2021/07/11 10:43:50;;;;;;;9.90;9.40;;;23.90;98.10;;;;;;3532567;40;20466;-59
2021/07/11 10:46:31;;;;;;;9.20;8.70;;;23.90;98.10;;;;;;3521698;40;20585;-59
2021/07/11 10:49:15;;;;;;;9.60;9.10;;;23.90;98.10;;;;;;3533728;40;20447;-60
2021/07/11 10:51:44;;;;;;;8.90;8.40;;;23.90;98.10;;;;;;3524014;40;20542;-59
2021/07/11 10:54:26;;;;;;;9.53;8.83;;;23.90;98.10;;;;;;3533265;40;20475;-59
2021/07/11 10:56:56;;;;;;;9.30;8.60;;;23.90;98.10;;;;;;3533545;40;20802;-59
2021/07/11 10:59:41;;;;;;;9.97;9.17;;;23.90;98.10;;;;;;3531671;40;20474;-59
2021/07/11 11:02:23;;;;;;;8.70;8.20;;;23.90;98.10;;;;;;3531708;40;20463;-60
2021/07/11 11:05:01;;;;;;;9.20;8.70;;;23.90;98.20;;;;;;3532957;40;20523;-61
2021/07/11 11:07:40;;;;;;;9.13;8.63;;;23.90;98.20;;;;;;3542902;40;20740;-58
2021/07/11 11:10:37;;;;;;;8.53;8.10;;;23.90;98.00;;;;;;3542154;40;20466;-61
2021/07/11 11:13:12;;;;;;;9.20;8.70;;;23.90;98.00;;;;;;3533094;40;20462;-57
2021/07/11 11:15:44;;;;;;;9.17;8.77;;;23.90;98.00;;;;;;3542048;40;20555;-58
2021/07/11 11:18:19;;;;;;;9.30;8.77;;;23.90;98.30;;;;;;3530157;40;20511;-57
2021/07/11 11:20:59;;;;;;;9.07;8.57;;;23.90;98.00;;;;;;3523236;40;20452;-57
2021/07/11 11:23:28;;;;;;;8.80;8.40;;;23.90;98.00;;;;;;3520981;40;20472;-59
2021/07/11 11:25:56;;;;;;;8.53;8.10;;;23.90;98.00;;;;;;3519798;40;20471;-59
2021/07/11 11:28:33;;;;;;;9.67;9.00;;;23.90;98.00;;;;;;3522804;40;20444;-58
2021/07/11 11:31:12;;;;;;;8.80;8.30;;;23.90;98.30;;;;;;3523774;40;20816;-57
2021/07/11 11:33:59;;;;;;;9.40;8.90;;;23.90;98.00;;;;;;3523226;40;20562;-58
2021/07/11 11:36:31;;;;;;;9.07;8.67;;;23.90;98.10;;;;;;3530560;40;20476;-56
2021/07/11 11:39:01;;;;;;;9.40;8.80;;;23.90;98.00;;;;;;3522512;40;20452;-57
2021/07/11 11:41:30;;;;;;;9.80;9.10;;;23.90;98.10;;;;;;3521812;40;20444;-58
2021/07/11 11:44:12;;;;;;;8.90;8.40;;;23.90;98.00;;;;;;3522132;40;20452;-59
2021/07/11 11:46:42;;;;;;;9.00;8.50;;;23.90;98.00;;;;;;3522731;40;20475;-59
2021/07/11 11:49:16;;;;;;;8.40;8.00;;;23.90;98.00;;;;;;3523364;40;20476;-59
2021/07/11 11:51:47;;;;;;;9.53;9.03;;;23.90;97.80;;;;;;3522190;40;20486;-60
2021/07/11 11:54:26;;;;;;;8.30;7.83;;;23.80;97.70;;;;;;3512459;40;21116;-58
2021/07/11 11:56:55;;;;;;;7.90;7.60;;;23.90;97.60;;;;;;3522433;40;20451;-61
2021/07/11 11:59:25;;;;;;;8.30;7.90;;;23.80;97.30;;;;;;3515693;40;20793;-60
2021/07/11 12:01:57;;;;;;;8.70;8.30;;;23.80;97.10;;;;;;3523974;40;21159;-60
2021/07/11 12:04:28;;;;;;;7.77;7.37;;;23.80;97.10;;;;;;3522653;40;20468;-61
2021/07/11 12:06:57;;;;;;;8.03;7.63;;;23.80;96.80;;;;;;3523006;40;20722;-58
2021/07/11 12:09:26;;;;;;;9.20;8.50;;;23.80;96.60;;;;;;3523327;40;20475;-60
2021/07/11 12:12:04;;;;;;;8.47;8.07;;;23.80;96.70;;;;;;3522930;40;20463;-60
2021/07/11 12:14:35;;;;;;;9.50;8.90;;;23.80;96.90;;;;;;3521968;40;20459;-58
2021/07/11 12:17:07;;;;;;;9.73;8.93;;;23.80;97.00;;;;;;3514725;40;20569;-58
2021/07/11 12:19:47;;;;;;;9.37;8.80;;;23.80;97.00;;;;;;3513625;40;20712;-58
2021/07/11 12:22:16;;;;;;;9.17;8.60;;;23.90;97.20;;;;;;3513252;40;20767;-58
2021/07/11 12:24:46;;;;;;;8.90;8.40;;;23.80;97.20;;;;;;3522678;40;20546;-58
2021/07/11 12:27:19;;;;;;;9.53;8.97;;;23.90;97.30;;;;;;3521643;40;20875;-57
2021/07/11 12:29:48;;;;;;;9.37;8.90;;;23.80;97.20;;;;;;3521394;40;20515;-58
2021/07/11 12:32:15;;;;;;;8.57;8.17;;;23.90;97.30;;;;;;3521771;40;20475;-58
2021/07/11 12:34:43;;;;;;;8.77;8.37;;;23.90;97.40;;;;;;3521583;40;20471;-58
2021/07/11 12:37:13;;;;;;;8.93;8.50;;;23.90;97.40;;;;;;3522155;40;20536;-58
2021/07/11 12:39:44;;;;;;;8.13;7.63;;;23.90;97.40;;;;;;3530544;40;20451;-59
2021/07/11 12:42:17;;;;;;;8.40;7.90;;;23.90;97.40;;;;;;3531912;40;20466;-60
2021/07/11 12:44:47;;;;;;;8.57;7.87;;;23.90;97.40;;;;;;3533067;40;20458;-58
2021/07/11 12:47:17;;;;;;;8.20;7.80;;;23.90;97.30;;;;;;3532879;40;20470;-59
2021/07/11 12:49:53;;;;;;;8.83;8.33;;;23.90;97.30;;;;;;3533988;40;20899;-57
2021/07/11 12:52:22;;;;;;;7.97;7.60;;;23.90;97.30;;;;;;3532569;40;20498;-59
2021/07/11 12:54:51;;;;;;;8.30;7.90;;;23.80;97.20;;;;;;3532487;40;20561;-58
2021/07/11 12:57:26;;;;;;;8.20;7.90;;;23.90;97.20;;;;;;3532779;40;20455;-58